Time;durP1;ratioP1;P1;durP2;ratioP2;P2;SDS_P1;SDS_P2;PMS_P1;PMS_P2;Temp;Humidity;BMP_temperature;BMP_pressure;BME280_temperature;BME280_humidity;BME280_pressure;Samples;Min_cycle;Max_cycle;Signal;HPM_P1;HPM_P2
2021/09/09 00:00:34;;;;;;;8.70;8.00;;;;;;;;;;5028681;28;20179;-57
2021/09/09 00:03:00;;;;;;;9.27;8.47;;;;;;;;;;5030427;28;20205;-57
2021/09/09 00:05:26;;;;;;;7.67;7.00;;;;;;;;;;5030100;28;20708;-57
2021/09/09 00:07:52;;;;;;;8.53;7.73;;;;;;;;;;5029305;28;20210;-57
2021/09/09 00:10:18;;;;;;;10.07;8.40;;;;;;;;;;5029359;28;20217;-57
2021/09/09 00:12:44;;;;;;;9.20;8.30;;;;;;;;;;5030636;28;20182;-58
2021/09/09 00:15:10;;;;;;;8.67;7.53;;;;;;;;;;5028819;28;20243;-57
2021/09/09 00:17:36;;;;;;;8.67;7.87;;;;;;;;;;5028724;28;20249;-57
2021/09/09 00:20:03;;;;;;;8.87;8.07;;;;;;;;;;5030137;28;20186;-57
2021/09/09 00:22:29;;;;;;;8.80;8.00;;;;;;;;;;5030618;28;20180;-57
2021/09/09 00:24:55;;;;;;;8.93;8.13;;;;;;;;;;5027565;28;20225;-57
2021/09/09 00:27:21;;;;;;;9.00;8.10;;;;;;;;;;5030186;28;20178;-57
2021/09/09 00:29:47;;;;;;;9.07;8.23;;;;;;;;;;5028313;28;20173;-57
2021/09/09 00:32:13;;;;;;;8.47;7.77;;;;;;;;;;5029950;28;20191;-57
2021/09/09 00:34:39;;;;;;;8.13;7.43;;;;;;;;;;5029544;28;20277;-57
2021/09/09 00:37:05;;;;;;;9.37;8.47;;;;;;;;;;5029534;28;20560;-58
2021/09/09 00:39:31;;;;;;;8.63;7.77;;;;;;;;;;5029108;28;20641;-57
2021/09/09 00:41:57;;;;;;;8.27;7.50;;;;;;;;;;5027639;28;20676;-57
2021/09/09 00:44:24;;;;;;;9.43;8.63;;;;;;;;;;5024650;28;20212;-57
2021/09/09 00:47:09;;;;;;;9.00;8.10;;;;;;;;;;5029980;28;20183;-57
2021/09/09 00:49:36;;;;;;;9.77;8.87;;;;;;;;;;5027348;28;20242;-57
2021/09/09 00:52:03;;;;;;;8.93;8.10;;;;;;;;;;5028376;28;20230;-57
2021/09/09 00:54:29;;;;;;;9.50;8.37;;;;;;;;;;5028686;28;20264;-57
2021/09/09 00:56:56;;;;;;;8.67;7.87;;;;;;;;;;5029910;28;20238;-58
2021/09/09 00:59:22;;;;;;;8.93;8.13;;;;;;;;;;5028832;28;20178;-57
2021/09/09 01:01:48;;;;;;;8.57;7.87;;;;;;;;;;5029900;28;20188;-57
2021/09/09 01:04:14;;;;;;;8.40;7.70;;;;;;;;;;5028793;28;20196;-57
2021/09/09 01:06:41;;;;;;;8.57;7.77;;;;;;;;;;5029169;28;20192;-57
2021/09/09 01:09:07;;;;;;;8.43;7.73;;;;;;;;;;5027856;28;20177;-57
2021/09/09 01:11:33;;;;;;;8.77;7.97;;;;;;;;;;5026478;28;20187;-57
2021/09/09 01:14:09;;;;;;;9.67;8.67;;;;;;;;;;5029457;28;20285;-57
2021/09/09 01:16:35;;;;;;;8.93;8.10;;;;;;;;;;5024817;28;20200;-58
2021/09/09 01:19:02;;;;;;;7.80;7.10;;;;;;;;;;5028322;28;20194;-57
2021/09/09 01:21:28;;;;;;;8.37;7.57;;;;;;;;;;5028878;28;20182;-57
2021/09/09 01:23:55;;;;;;;9.53;8.50;;;;;;;;;;5027895;28;20303;-57
2021/09/09 01:26:21;;;;;;;10.27;8.23;;;;;;;;;;5028691;28;20189;-57
2021/09/09 01:28:47;;;;;;;8.57;7.77;;;;;;;;;;5029200;28;20189;-58
2021/09/09 01:31:13;;;;;;;7.73;7.03;;;;;;;;;;5026967;28;20946;-57
2021/09/09 01:33:39;;;;;;;7.93;7.20;;;;;;;;;;5028619;28;20192;-57
2021/09/09 01:36:05;;;;;;;7.60;6.90;;;;;;;;;;5028637;28;20244;-57
2021/09/09 01:38:31;;;;;;;8.53;7.73;;;;;;;;;;5028074;28;20186;-57
2021/09/09 01:40:58;;;;;;;7.70;7.00;;;;;;;;;;5026842;28;20209;-57
2021/09/09 01:43:23;;;;;;;8.17;7.47;;;;;;;;;;5027025;28;20222;-57
2021/09/09 01:45:50;;;;;;;8.73;7.93;;;;;;;;;;5028780;28;20174;-57
2021/09/09 01:48:16;;;;;;;8.03;7.30;;;;;;;;;;5028039;28;20198;-57
2021/09/09 01:50:42;;;;;;;8.33;7.63;;;;;;;;;;5028103;28;20186;-57
2021/09/09 01:53:08;;;;;;;8.90;8.10;;;;;;;;;;5028339;28;20251;-57
2021/09/09 01:55:34;;;;;;;9.03;8.23;;;;;;;;;;5026700;28;20203;-57
2021/09/09 01:58:00;;;;;;;8.80;8.00;;;;;;;;;;5028549;28;20506;-57
2021/09/09 02:00:26;;;;;;;9.17;8.27;;;;;;;;;;5027122;28;20192;-57
2021/09/09 02:02:52;;;;;;;8.93;7.90;;;;;;;;;;5027975;28;20970;-57
2021/09/09 02:05:18;;;;;;;7.90;7.20;;;;;;;;;;5027554;28;20183;-57
2021/09/09 02:07:44;;;;;;;8.20;7.47;;;;;;;;;;5028505;28;20187;-57
2021/09/09 02:10:10;;;;;;;8.10;7.40;;;;;;;;;;5025904;28;20210;-57
2021/09/09 02:12:36;;;;;;;8.37;7.63;;;;;;;;;;5027708;28;20175;-57
2021/09/09 02:15:03;;;;;;;9.30;8.40;;;;;;;;;;5028034;28;20240;-57
2021/09/09 02:17:29;;;;;;;8.57;7.77;;;;;;;;;;5027795;28;20286;-58
2021/09/09 02:19:55;;;;;;;8.77;7.97;;;;;;;;;;5027194;28;20227;-57
2021/09/09 02:22:21;;;;;;;9.13;8.33;;;;;;;;;;5027633;28;20604;-57
2021/09/09 02:24:47;;;;;;;7.73;7.03;;;;;;;;;;5024870;28;20210;-57
2021/09/09 02:27:14;;;;;;;9.23;8.40;;;;;;;;;;5027650;28;20548;-56
2021/09/09 02:29:41;;;;;;;7.83;7.13;;;;;;;;;;5027825;28;20177;-57
2021/09/09 02:32:07;;;;;;;8.33;7.43;;;;;;;;;;5025931;28;20200;-57
2021/09/09 02:34:33;;;;;;;8.57;7.87;;;;;;;;;;5025990;28;20705;-57
2021/09/09 02:37:00;;;;;;;9.63;8.07;;;;;;;;;;5026663;28;20255;-58
2021/09/09 02:39:26;;;;;;;8.13;7.43;;;;;;;;;;5026465;28;20190;-57
2021/09/09 02:41:52;;;;;;;9.27;8.27;;;;;;;;;;5027982;28;20181;-58
2021/09/09 02:44:18;;;;;;;8.20;7.40;;;;;;;;;;5027629;28;20206;-58
2021/09/09 02:46:45;;;;;;;9.67;7.97;;;;;;;;;;5027534;28;20182;-58
2021/09/09 02:49:11;;;;;;;8.70;7.87;;;;;;;;;;5027020;28;20174;-58
2021/09/09 02:51:37;;;;;;;8.60;7.70;;;;;;;;;;5025816;28;20179;-58
2021/09/09 02:54:03;;;;;;;9.57;8.57;;;;;;;;;;5028416;28;20197;-58
2021/09/09 02:56:29;;;;;;;8.00;7.20;;;;;;;;;;5024900;28;20222;-58
2021/09/09 02:58:57;;;;;;;8.10;7.37;;;;;;;;;;5020231;28;20505;-58
2021/09/09 03:01:23;;;;;;;10.30;9.40;;;;;;;;;;5025156;28;20178;-58
2021/09/09 03:03:49;;;;;;;8.33;7.60;;;;;;;;;;5027203;28;20244;-58
2021/09/09 03:06:16;;;;;;;8.00;7.30;;;;;;;;;;5026808;28;20178;-58
2021/09/09 03:08:42;;;;;;;8.10;7.30;;;;;;;;;;5025660;28;20185;-58
2021/09/09 03:11:08;;;;;;;8.80;7.90;;;;;;;;;;5026265;28;20189;-58
2021/09/09 03:13:34;;;;;;;8.47;7.67;;;;;;;;;;5025602;28;20709;-58
2021/09/09 03:16:01;;;;;;;8.83;8.03;;;;;;;;;;5025704;28;20625;-58
2021/09/09 03:18:27;;;;;;;8.40;7.60;;;;;;;;;;5026264;28;20173;-58
2021/09/09 03:20:53;;;;;;;8.50;7.70;;;;;;;;;;5025288;28;20214;-58
2021/09/09 03:23:20;;;;;;;8.10;7.30;;;;;;;;;;5025483;28;20194;-58
2021/09/09 03:25:46;;;;;;;7.93;7.23;;;;;;;;;;5024349;28;20652;-58
2021/09/09 03:28:12;;;;;;;7.93;7.13;;;;;;;;;;5026715;28;20178;-58
2021/09/09 03:30:38;;;;;;;8.37;7.57;;;;;;;;;;5023496;28;20289;-58
2021/09/09 03:33:05;;;;;;;9.63;8.73;;;;;;;;;;5026823;28;20217;-58
2021/09/09 03:35:31;;;;;;;9.00;7.83;;;;;;;;;;5024035;28;20225;-58
2021/09/09 03:37:57;;;;;;;7.30;6.70;;;;;;;;;;5028449;28;20195;-58
2021/09/09 03:40:23;;;;;;;11.07;10.17;;;;;;;;;;5029010;28;20185;-58
2021/09/09 03:42:50;;;;;;;7.53;6.83;;;;;;;;;;5028319;28;20189;-58
2021/09/09 03:45:16;;;;;;;8.37;7.33;;;;;;;;;;5027337;28;20268;-58
2021/09/09 03:47:42;;;;;;;7.93;7.13;;;;;;;;;;5028221;28;20223;-58
2021/09/09 03:50:09;;;;;;;9.43;8.03;;;;;;;;;;5027374;28;20214;-58
2021/09/09 03:52:35;;;;;;;7.97;7.27;;;;;;;;;;5028722;28;20184;-58
2021/09/09 03:55:02;;;;;;;9.20;8.13;;;;;;;;;;5027688;28;20178;-58
2021/09/09 03:57:28;;;;;;;8.27;7.57;;;;;;;;;;5027136;28;20182;-58
2021/09/09 03:59:54;;;;;;;8.37;7.57;;;;;;;;;;5026917;28;20186;-58
2021/09/09 04:02:20;;;;;;;11.30;10.50;;;;;;;;;;5027996;28;20186;-58
2021/09/09 04:04:47;;;;;;;8.53;7.73;;;;;;;;;;5025420;28;20299;-58
2021/09/09 04:07:13;;;;;;;9.90;9.07;;;;;;;;;;5028556;28;20182;-58
2021/09/09 04:09:40;;;;;;;8.70;7.90;;;;;;;;;;5026319;28;20185;-58
2021/09/09 04:12:06;;;;;;;8.17;7.47;;;;;;;;;;5030126;28;20218;-58
2021/09/09 04:14:33;;;;;;;7.83;7.13;;;;;;;;;;5028013;28;20182;-58
2021/09/09 04:17:00;;;;;;;8.60;7.60;;;;;;;;;;5028782;28;20213;-58
2021/09/09 04:19:26;;;;;;;9.30;8.10;;;;;;;;;;5025251;28;20201;-58
2021/09/09 04:21:53;;;;;;;9.57;8.57;;;;;;;;;;5026673;28;20194;-58
2021/09/09 04:24:22;;;;;;;8.23;7.47;;;;;;;;;;5026689;28;20198;-59
2021/09/09 04:26:48;;;;;;;8.37;7.50;;;;;;;;;;5007943;28;20547;-58
2021/09/09 04:29:15;;;;;;;8.90;8.10;;;;;;;;;;5025125;28;20212;-59
2021/09/09 04:31:41;;;;;;;9.30;8.50;;;;;;;;;;5027061;28;20422;-59
2021/09/09 04:34:07;;;;;;;8.83;7.90;;;;;;;;;;5023539;28;20237;-59
2021/09/09 04:36:33;;;;;;;8.67;7.87;;;;;;;;;;5026177;28;20190;-59
2021/09/09 04:39:00;;;;;;;9.17;8.37;;;;;;;;;;5028059;28;20182;-58
2021/09/09 04:41:26;;;;;;;9.00;8.13;;;;;;;;;;5027919;28;20177;-57
2021/09/09 04:43:53;;;;;;;8.07;7.30;;;;;;;;;;5025840;28;20298;-57
2021/09/09 04:46:19;;;;;;;9.63;8.83;;;;;;;;;;5027043;28;20170;-57
2021/09/09 04:48:45;;;;;;;8.30;7.50;;;;;;;;;;5025443;28;21245;-57
2021/09/09 04:51:11;;;;;;;8.17;7.43;;;;;;;;;;5026648;28;20863;-57
2021/09/09 04:53:38;;;;;;;8.00;7.20;;;;;;;;;;5025564;28;20182;-57
2021/09/09 04:56:04;;;;;;;7.77;7.07;;;;;;;;;;5025622;28;20220;-57
2021/09/09 04:58:31;;;;;;;8.50;7.67;;;;;;;;;;5027146;28;20174;-57
2021/09/09 05:00:57;;;;;;;10.10;9.20;;;;;;;;;;5026097;28;20179;-58
2021/09/09 05:03:24;;;;;;;8.17;7.47;;;;;;;;;;5027003;28;20207;-56
2021/09/09 05:05:50;;;;;;;8.13;7.43;;;;;;;;;;5020365;28;20230;-57
2021/09/09 05:08:16;;;;;;;8.67;7.60;;;;;;;;;;5027478;28;20193;-57
2021/09/09 05:10:43;;;;;;;8.20;7.40;;;;;;;;;;5025454;28;20575;-57
2021/09/09 05:13:09;;;;;;;7.90;7.20;;;;;;;;;;5025798;28;20476;-57
2021/09/09 05:15:35;;;;;;;7.90;7.20;;;;;;;;;;5028315;28;20178;-58
2021/09/09 05:18:02;;;;;;;8.37;7.67;;;;;;;;;;5026509;28;20239;-59
2021/09/09 05:20:28;;;;;;;7.50;6.90;;;;;;;;;;5024219;28;20182;-58
2021/09/09 05:22:55;;;;;;;8.23;7.27;;;;;;;;;;5027839;28;20270;-59
2021/09/09 05:25:21;;;;;;;8.80;8.00;;;;;;;;;;5027198;28;20198;-58
2021/09/09 05:27:47;;;;;;;8.83;8.03;;;;;;;;;;5025909;28;20191;-58
2021/09/09 05:30:13;;;;;;;8.10;7.40;;;;;;;;;;5026303;28;20190;-58
2021/09/09 05:32:40;;;;;;;9.37;8.30;;;;;;;;;;5027336;28;20198;-58
2021/09/09 05:35:06;;;;;;;8.27;7.47;;;;;;;;;;5025653;28;20814;-58
2021/09/09 05:37:32;;;;;;;8.13;7.40;;;;;;;;;;5028699;28;20181;-58
2021/09/09 05:39:58;;;;;;;8.27;7.57;;;;;;;;;;5026670;28;20216;-58
2021/09/09 05:42:25;;;;;;;8.73;7.93;;;;;;;;;;5026326;28;20315;-58
2021/09/09 05:44:52;;;;;;;8.60;7.43;;;;;;;;;;5026212;28;20421;-58
2021/09/09 05:47:18;;;;;;;8.77;7.97;;;;;;;;;;5027333;28;20177;-58
2021/09/09 05:49:44;;;;;;;8.27;7.40;;;;;;;;;;5010083;28;20236;-58
2021/09/09 05:52:11;;;;;;;7.83;6.97;;;;;;;;;;5010515;28;20177;-58
2021/09/09 05:54:37;;;;;;;7.70;7.00;;;;;;;;;;5025770;28;20560;-58
2021/09/09 05:57:04;;;;;;;7.73;7.03;;;;;;;;;;5028792;28;20544;-58
2021/09/09 05:59:30;;;;;;;8.43;7.63;;;;;;;;;;5027760;28;20532;-58
2021/09/09 06:01:57;;;;;;;12.23;8.47;;;;;;;;;;5027036;28;20198;-58
2021/09/09 06:04:24;;;;;;;9.40;8.47;;;;;;;;;;5027268;28;20350;-58
2021/09/09 06:06:50;;;;;;;8.60;7.67;;;;;;;;;;5027022;28;20177;-58
2021/09/09 06:09:17;;;;;;;11.07;8.63;;;;;;;;;;5027703;28;20236;-58
2021/09/09 06:11:43;;;;;;;10.93;9.33;;;;;;;;;;5026724;28;20264;-57
2021/09/09 06:14:09;;;;;;;10.67;9.57;;;;;;;;;;5026529;28;20189;-57
2021/09/09 06:16:36;;;;;;;15.33;9.33;;;;;;;;;;5027746;28;20185;-57
2021/09/09 06:19:02;;;;;;;12.23;10.67;;;;;;;;;;5027911;28;20269;-57
2021/09/09 06:21:29;;;;;;;14.67;9.53;;;;;;;;;;5026923;28;20185;-57
2021/09/09 06:23:55;;;;;;;11.50;9.20;;;;;;;;;;5025891;28;20301;-57
2021/09/09 06:26:21;;;;;;;11.10;9.97;;;;;;;;;;5025818;28;20605;-58
2021/09/09 06:28:47;;;;;;;12.80;9.53;;;;;;;;;;5027697;28;20486;-58
2021/09/09 06:31:14;;;;;;;15.37;10.73;;;;;;;;;;5021781;28;20577;-58
2021/09/09 06:33:40;;;;;;;12.67;9.87;;;;;;;;;;5025845;28;20655;-58
2021/09/09 06:36:06;;;;;;;10.73;9.10;;;;;;;;;;5023495;28;20189;-58
2021/09/09 06:38:32;;;;;;;11.37;9.47;;;;;;;;;;5026142;28;20204;-58
2021/09/09 06:40:59;;;;;;;13.10;9.37;;;;;;;;;;5026634;28;20185;-59
2021/09/09 06:43:25;;;;;;;10.87;9.47;;;;;;;;;;5023629;28;20205;-58
2021/09/09 06:45:52;;;;;;;13.83;10.10;;;;;;;;;;5024796;28;20186;-58
2021/09/09 06:48:18;;;;;;;10.60;9.50;;;;;;;;;;5022850;28;20189;-58
2021/09/09 06:50:44;;;;;;;12.07;9.70;;;;;;;;;;5025272;28;20174;-58
2021/09/09 06:53:11;;;;;;;10.37;9.37;;;;;;;;;;5027435;28;20257;-57
2021/09/09 06:55:37;;;;;;;10.93;8.87;;;;;;;;;;5005043;28;20228;-58
2021/09/09 06:58:04;;;;;;;10.27;9.37;;;;;;;;;;5022339;28;20607;-58
2021/09/09 07:00:30;;;;;;;13.03;10.03;;;;;;;;;;5024562;28;20286;-58
2021/09/09 07:02:57;;;;;;;9.70;8.73;;;;;;;;;;5024715;28;20181;-58
2021/09/09 07:05:23;;;;;;;13.30;9.13;;;;;;;;;;5025373;28;20634;-58
2021/09/09 07:07:49;;;;;;;11.23;9.73;;;;;;;;;;5024462;28;20212;-58
2021/09/09 07:10:18;;;;;;;11.43;10.27;;;;;;;;;;5009052;28;20185;-58
2021/09/09 07:12:44;;;;;;;10.00;8.97;;;;;;;;;;5030397;28;20170;-58
2021/09/09 07:15:11;;;;;;;11.00;9.37;;;;;;;;;;5028778;28;20185;-58
2021/09/09 07:17:37;;;;;;;9.97;8.97;;;;;;;;;;5029084;28;20721;-58
2021/09/09 07:20:04;;;;;;;10.40;9.03;;;;;;;;;;5028039;28;20193;-58
2021/09/09 07:22:30;;;;;;;10.40;8.43;;;;;;;;;;5030085;28;20560;-58
2021/09/09 07:24:57;;;;;;;15.33;9.60;;;;;;;;;;5028638;28;20269;-58
2021/09/09 07:27:23;;;;;;;10.00;8.90;;;;;;;;;;5030015;28;20178;-58
2021/09/09 07:29:49;;;;;;;10.60;8.40;;;;;;;;;;5029956;28;20189;-58
2021/09/09 07:32:15;;;;;;;9.37;8.47;;;;;;;;;;5029454;28;20205;-58
2021/09/09 07:34:41;;;;;;;9.57;8.50;;;;;;;;;;5029861;28;20669;-57
2021/09/09 07:37:07;;;;;;;9.90;8.33;;;;;;;;;;5027588;28;20212;-57
2021/09/09 07:39:33;;;;;;;8.90;7.53;;;;;;;;;;5029515;28;20174;-57
2021/09/09 07:42:00;;;;;;;8.47;7.50;;;;;;;;;;5025513;28;20182;-57
2021/09/09 07:44:26;;;;;;;8.53;7.77;;;;;;;;;;5024297;28;21084;-58
2021/09/09 07:46:53;;;;;;;8.70;7.87;;;;;;;;;;5029323;28;20178;-57
2021/09/09 07:49:19;;;;;;;9.47;7.77;;;;;;;;;;5029394;28;20175;-57
2021/09/09 07:51:49;;;;;;;9.30;8.40;;;;;;;;;;5027698;28;20729;-59
2021/09/09 07:54:15;;;;;;;9.40;7.53;;;;;;;;;;5023743;28;20183;-58
2021/09/09 07:56:42;;;;;;;8.83;7.40;;;;;;;;;;5029515;28;20190;-58
2021/09/09 07:59:08;;;;;;;7.57;6.87;;;;;;;;;;5027861;28;20212;-59
2021/09/09 08:01:35;;;;;;;8.33;7.53;;;;;;;;;;5023770;28;20191;-60
2021/09/09 08:04:01;;;;;;;9.03;7.97;;;;;;;;;;5031156;28;20191;-59
2021/09/09 08:06:27;;;;;;;9.50;7.83;;;;;;;;;;5029095;28;20176;-59
2021/09/09 08:08:54;;;;;;;8.90;8.00;;;;;;;;;;5028387;28;20279;-59
2021/09/09 08:11:20;;;;;;;9.37;8.37;;;;;;;;;;5030099;28;20715;-59
2021/09/09 08:13:46;;;;;;;11.47;8.10;;;;;;;;;;5028529;28;20222;-59
2021/09/09 08:16:12;;;;;;;11.83;7.80;;;;;;;;;;5029675;28;20699;-59
2021/09/09 08:18:38;;;;;;;8.67;7.87;;;;;;;;;;5028693;28;20708;-59
2021/09/09 08:21:05;;;;;;;9.30;8.17;;;;;;;;;;5025327;28;20276;-58
2021/09/09 08:23:31;;;;;;;8.23;6.97;;;;;;;;;;5029386;28;20710;-59
2021/09/09 08:25:57;;;;;;;10.03;9.13;;;;;;;;;;5027548;28;20182;-59
2021/09/09 08:28:24;;;;;;;8.53;7.53;;;;;;;;;;5029918;28;20683;-59
2021/09/09 08:30:50;;;;;;;9.03;7.43;;;;;;;;;;5029234;28;20185;-59
2021/09/09 08:33:16;;;;;;;8.17;7.37;;;;;;;;;;5029475;28;20205;-59
2021/09/09 08:35:43;;;;;;;7.60;6.87;;;;;;;;;;5026190;28;20313;-59
2021/09/09 08:38:09;;;;;;;11.47;7.37;;;;;;;;;;5028710;28;20281;-59
2021/09/09 08:40:40;;;;;;;11.50;7.80;;;;;;;;;;5010828;28;20679;-59
2021/09/09 08:43:07;;;;;;;10.50;8.00;;;;;;;;;;5029531;28;20216;-59
2021/09/09 08:45:33;;;;;;;8.10;7.30;;;;;;;;;;5027929;28;20186;-59
2021/09/09 08:48:02;;;;;;;7.97;7.17;;;;;;;;;;5028322;28;20244;-59
2021/09/09 08:50:29;;;;;;;8.57;7.30;;;;;;;;;;5026883;28;20571;-59
2021/09/09 08:52:55;;;;;;;8.07;7.27;;;;;;;;;;5028330;28;20413;-59
2021/09/09 08:55:22;;;;;;;9.37;7.43;;;;;;;;;;5028125;28;20189;-59
2021/09/09 08:57:48;;;;;;;8.50;7.57;;;;;;;;;;5028604;28;20178;-59
2021/09/09 09:00:14;;;;;;;8.30;7.27;;;;;;;;;;5027153;28;20201;-59
2021/09/09 09:02:48;;;;;;;11.07;7.80;;;;;;;;;;5027741;28;20189;-59
2021/09/09 09:05:14;;;;;;;10.23;8.17;;;;;;;;;;5028455;28;20718;-59
2021/09/09 09:07:40;;;;;;;9.83;7.53;;;;;;;;;;5020442;28;20187;-59
2021/09/09 09:10:08;;;;;;;9.00;8.10;;;;;;;;;;5028122;28;20288;-59
2021/09/09 09:12:42;;;;;;;10.40;7.90;;;;;;;;;;5027596;28;20182;-59
2021/09/09 09:15:15;;;;;;;11.77;7.37;;;;;;;;;;5027450;28;20213;-60
2021/09/09 09:17:56;;;;;;;8.90;8.00;;;;;;;;;;5026311;28;20245;-59
2021/09/09 09:20:25;;;;;;;13.17;8.13;;;;;;;;;;5027294;28;20188;-60
2021/09/09 09:22:52;;;;;;;8.90;7.43;;;;;;;;;;5027239;28;20212;-60
2021/09/09 09:25:18;;;;;;;8.57;7.77;;;;;;;;;;5026068;28;20630;-60
2021/09/09 09:27:48;;;;;;;8.37;7.53;;;;;;;;;;5027165;28;20182;-60
2021/09/09 09:30:15;;;;;;;9.43;7.80;;;;;;;;;;5027715;28;20601;-60
2021/09/09 09:32:48;;;;;;;9.33;7.77;;;;;;;;;;5027261;28;20264;-60
2021/09/09 09:35:16;;;;;;;8.40;7.60;;;;;;;;;;5024551;28;20226;-60
2021/09/09 09:37:59;;;;;;;11.80;7.37;;;;;;;;;;5026643;28;20533;-60
2021/09/09 09:40:46;;;;;;;10.93;7.83;;;;;;;;;;5022028;28;20666;-60
2021/09/09 09:43:12;;;;;;;7.90;7.07;;;;;;;;;;5023236;28;20185;-60
2021/09/09 09:45:48;;;;;;;8.47;7.50;;;;;;;;;;5025318;28;20257;-60
2021/09/09 09:48:28;;;;;;;7.90;7.20;;;;;;;;;;5026986;28;20178;-60
2021/09/09 09:50:55;;;;;;;8.37;7.33;;;;;;;;;;5026743;28;21526;-60
2021/09/09 09:53:21;;;;;;;8.60;7.07;;;;;;;;;;5026456;28;20174;-59
2021/09/09 09:55:48;;;;;;;9.70;7.50;;;;;;;;;;5025879;28;20221;-60
2021/09/09 09:58:16;;;;;;;8.63;7.80;;;;;;;;;;5026753;28;20182;-58
2021/09/09 10:00:42;;;;;;;12.00;7.53;;;;;;;;;;5025517;28;20182;-59
2021/09/09 10:03:08;;;;;;;11.60;7.60;;;;;;;;;;5027546;28;20185;-59
2021/09/09 10:05:36;;;;;;;8.33;7.43;;;;;;;;;;5022625;28;20178;-58
2021/09/09 10:08:03;;;;;;;8.60;7.00;;;;;;;;;;5026344;28;20778;-58
2021/09/09 10:10:30;;;;;;;10.05;7.90;;;;;;;;;;5025099;28;20958;-59
2021/09/09 10:12:56;;;;;;;8.07;7.27;;;;;;;;;;5025054;28;20763;-59
2021/09/09 10:15:22;;;;;;;10.30;7.73;;;;;;;;;;5009825;28;20538;-59
2021/09/09 10:17:49;;;;;;;10.20;7.63;;;;;;;;;;5026499;28;20958;-59
2021/09/09 10:20:32;;;;;;;8.73;7.73;;;;;;;;;;5025378;28;20178;-59
2021/09/09 10:23:01;;;;;;;9.97;8.97;;;;;;;;;;5027956;28;20182;-59
2021/09/09 10:25:48;;;;;;;10.43;8.67;;;;;;;;;;5025263;28;20229;-59
2021/09/09 10:28:38;;;;;;;9.17;8.37;;;;;;;;;;5027413;28;20175;-58
2021/09/09 10:31:05;;;;;;;9.80;8.80;;;;;;;;;;5026988;28;20603;-59
2021/09/09 10:33:32;;;;;;;12.20;9.57;;;;;;;;;;5027271;28;20204;-59
2021/09/09 10:35:59;;;;;;;8.70;7.87;;;;;;;;;;5024777;28;20296;-58
2021/09/09 10:38:27;;;;;;;9.60;8.60;;;;;;;;;;5018972;28;20196;-58
2021/09/09 10:40:54;;;;;;;9.57;8.57;;;;;;;;;;5025272;28;20202;-58
2021/09/09 10:43:23;;;;;;;12.67;8.87;;;;;;;;;;5027244;28;20242;-58
2021/09/09 10:45:49;;;;;;;10.43;9.40;;;;;;;;;;5025769;28;20612;-58
2021/09/09 10:48:16;;;;;;;13.03;9.27;;;;;;;;;;5027328;28;20604;-61
2021/09/09 10:50:57;;;;;;;12.47;8.33;;;;;;;;;;5024524;28;20184;-58
2021/09/09 10:53:43;;;;;;;15.03;8.53;;;;;;;;;;5018185;28;20405;-59
2021/09/09 10:56:12;;;;;;;9.33;8.43;;;;;;;;;;5026492;28;20711;-59
2021/09/09 10:58:39;;;;;;;10.53;8.40;;;;;;;;;;5025871;28;20690;-58
2021/09/09 11:01:06;;;;;;;10.40;8.37;;;;;;;;;;5024711;28;20276;-58
2021/09/09 11:03:35;;;;;;;10.97;8.23;;;;;;;;;;5027304;28;20301;-58
2021/09/09 11:06:01;;;;;;;10.53;8.27;;;;;;;;;;5025836;28;20280;-59
2021/09/09 11:08:28;;;;;;;9.07;8.20;;;;;;;;;;5017934;28;20255;-59
2021/09/09 11:10:54;;;;;;;9.60;8.33;;;;;;;;;;5025389;28;20197;-59
2021/09/09 11:13:27;;;;;;;9.50;8.63;;;;;;;;;;5026200;28;20188;-59
2021/09/09 11:15:54;;;;;;;10.10;8.33;;;;;;;;;;5025805;28;20711;-58
2021/09/09 11:18:27;;;;;;;11.13;9.30;;;;;;;;;;5025972;28;20236;-58
2021/09/09 11:21:06;;;;;;;9.73;8.83;;;;;;;;;;5025409;28;20302;-58
2021/09/09 11:23:33;;;;;;;12.07;8.80;;;;;;;;;;5026173;28;20207;-59
2021/09/09 11:26:13;;;;;;;10.73;9.00;;;;;;;;;;5024097;28;20184;-59
2021/09/09 11:28:39;;;;;;;10.47;9.13;;;;;;;;;;5027574;28;20174;-59
2021/09/09 11:31:06;;;;;;;11.93;9.60;;;;;;;;;;5026608;28;20274;-59
2021/09/09 11:33:32;;;;;;;12.27;9.13;;;;;;;;;;5026534;28;20676;-62
2021/09/09 11:36:02;;;;;;;9.33;8.43;;;;;;;;;;5026127;28;20184;-59
2021/09/09 11:38:34;;;;;;;11.27;9.37;;;;;;;;;;5024324;28;20190;-60
2021/09/09 11:41:08;;;;;;;12.63;10.67;;;;;;;;;;5025251;28;20190;-60
2021/09/09 11:43:34;;;;;;;16.90;10.70;;;;;;;;;;5024827;28;20198;-59
2021/09/09 11:46:01;;;;;;;12.13;9.17;;;;;;;;;;5026463;28;20248;-59
2021/09/09 11:48:27;;;;;;;11.13;10.03;;;;;;;;;;5024976;28;20372;-60
2021/09/09 11:50:53;;;;;;;13.60;9.87;;;;;;;;;;5020590;28;20639;-59
2021/09/09 11:53:23;;;;;;;13.97;9.67;;;;;;;;;;5024170;28;20182;-59
2021/09/09 11:55:50;;;;;;;10.53;9.23;;;;;;;;;;5025801;28;20187;-60
2021/09/09 11:58:32;;;;;;;12.80;9.80;;;;;;;;;;5030412;28;20190;-59
2021/09/09 12:00:59;;;;;;;10.63;9.53;;;;;;;;;;5028023;28;20219;-60
2021/09/09 12:03:26;;;;;;;11.63;10.10;;;;;;;;;;5030165;28;20178;-60
2021/09/09 12:05:55;;;;;;;10.47;9.43;;;;;;;;;;5028706;28;20277;-60
2021/09/09 12:08:22;;;;;;;11.60;9.43;;;;;;;;;;5029905;28;20192;-60
2021/09/09 12:10:48;;;;;;;10.90;9.43;;;;;;;;;;5028073;28;20550;-60
2021/09/09 12:13:29;;;;;;;13.77;9.13;;;;;;;;;;5027407;28;20210;-60
2021/09/09 12:15:56;;;;;;;10.27;8.93;;;;;;;;;;5011646;28;20251;-60
2021/09/09 12:18:31;;;;;;;10.60;8.83;;;;;;;;;;5028814;28;20206;-60
2021/09/09 12:21:07;;;;;;;9.80;8.90;;;;;;;;;;5029368;28;20174;-60
2021/09/09 12:23:33;;;;;;;11.53;9.00;;;;;;;;;;5029112;28;20274;-60
2021/09/09 12:26:17;;;;;;;11.43;8.53;;;;;;;;;;5029154;28;20246;-60
2021/09/09 12:28:43;;;;;;;11.20;9.10;;;;;;;;;;5030456;28;20532;-60
2021/09/09 12:31:09;;;;;;;11.20;8.03;;;;;;;;;;5028559;28;20179;-60
2021/09/09 12:33:39;;;;;;;9.70;8.77;;;;;;;;;;5028090;28;20269;-60
2021/09/09 12:36:16;;;;;;;10.30;8.67;;;;;;;;;;5026652;28;20189;-60
2021/09/09 12:38:42;;;;;;;8.13;7.50;;;;;;;;;;5028530;28;20215;-60
2021/09/09 12:41:10;;;;;;;12.77;8.67;;;;;;;;;;5027374;28;20241;-59
2021/09/09 12:43:38;;;;;;;10.67;8.23;;;;;;;;;;5022356;28;20268;-59
2021/09/09 12:46:06;;;;;;;10.10;8.23;;;;;;;;;;5028542;28;20189;-60
2021/09/09 12:48:33;;;;;;;15.53;10.67;;;;;;;;;;5028105;28;20646;-59
2021/09/09 12:51:08;;;;;;;13.73;9.20;;;;;;;;;;5027227;28;20661;-60
2021/09/09 12:53:36;;;;;;;9.23;7.83;;;;;;;;;;5026257;28;20192;-60
2021/09/09 12:56:04;;;;;;;10.10;8.47;;;;;;;;;;5028160;28;20183;-60
2021/09/09 12:58:30;;;;;;;7.83;7.03;;;;;;;;;;5027106;28;20556;-60
2021/09/09 13:00:58;;;;;;;9.43;6.50;;;;;;;;;;5026535;28;20283;-59
2021/09/09 13:03:25;;;;;;;8.87;5.40;;;;;;;;;;5029014;28;20278;-60
2021/09/09 13:05:52;;;;;;;5.90;5.20;;;;;;;;;;5028008;28;20272;-60
2021/09/09 13:08:18;;;;;;;5.07;4.63;;;;;;;;;;5027958;28;20179;-61
2021/09/09 13:10:44;;;;;;;5.73;5.20;;;;;;;;;;5027961;28;20177;-59
2021/09/09 13:13:10;;;;;;;6.73;6.03;;;;;;;;;;5028500;28;20254;-59
2021/09/09 13:15:37;;;;;;;9.43;5.23;;;;;;;;;;5024636;28;20185;-59
2021/09/09 13:18:04;;;;;;;6.80;5.20;;;;;;;;;;5025935;28;20187;-60
2021/09/09 13:20:34;;;;;;;5.93;4.80;;;;;;;;;;5025126;28;20178;-59
2021/09/09 13:23:01;;;;;;;5.57;4.90;;;;;;;;;;5022379;28;20198;-59
2021/09/09 13:25:28;;;;;;;4.73;4.33;;;;;;;;;;5026242;28;20201;-60
2021/09/09 13:27:54;;;;;;;6.17;4.83;;;;;;;;;;5027367;28;20192;-59
2021/09/09 13:30:20;;;;;;;5.00;4.60;;;;;;;;;;5027415;28;20741;-59
2021/09/09 13:32:47;;;;;;;5.07;4.67;;;;;;;;;;5026365;28;20561;-59
2021/09/09 13:35:13;;;;;;;5.33;4.57;;;;;;;;;;5027161;28;20251;-59
2021/09/09 13:37:39;;;;;;;5.07;4.60;;;;;;;;;;5027894;28;20613;-59
2021/09/09 13:40:06;;;;;;;7.75;4.85;;;;;;;;;;5026304;28;20559;-59
2021/09/09 13:42:32;;;;;;;5.63;4.70;;;;;;;;;;5026983;28;20505;-59
2021/09/09 13:44:59;;;;;;;6.10;5.07;;;;;;;;;;5027914;28;20208;-59
2021/09/09 13:47:27;;;;;;;5.82;4.97;;;;;;;;;;5025153;28;20189;-60
2021/09/09 13:49:53;;;;;;;6.32;5.55;;;;;;;;;;5023850;28;20206;-60
2021/09/09 13:52:20;;;;;;;9.32;5.32;;;;;;;;;;5024365;28;20184;-60
2021/09/09 13:54:46;;;;;;;6.88;6.07;;;;;;;;;;5027512;28;20177;-60
2021/09/09 13:57:12;;;;;;;8.00;6.22;;;;;;;;;;5027891;28;20185;-60
2021/09/09 13:59:42;;;;;;;7.60;6.73;;;;;;;;;;5027335;28;20186;-60
2021/09/09 14:02:08;;;;;;;7.43;6.73;;;;;;;;;;5024407;28;20185;-60
2021/09/09 14:04:34;;;;;;;5.72;5.15;;;;;;;;;;5025456;28;20680;-60
2021/09/09 14:07:01;;;;;;;6.60;5.90;;;;;;;;;;5022556;28;20425;-60
2021/09/09 14:09:28;;;;;;;7.80;7.10;;;;;;;;;;5025314;28;20225;-60
2021/09/09 14:11:54;;;;;;;5.60;4.97;;;;;;;;;;5025550;28;20565;-60
2021/09/09 14:14:20;;;;;;;6.10;5.53;;;;;;;;;;5027798;28;20178;-60
2021/09/09 14:16:46;;;;;;;5.90;5.33;;;;;;;;;;5026973;28;20273;-60
2021/09/09 14:19:13;;;;;;;9.43;5.50;;;;;;;;;;5027127;28;20188;-60
2021/09/09 14:21:39;;;;;;;7.00;5.73;;;;;;;;;;5024702;28;20205;-60
2021/09/09 14:24:05;;;;;;;7.97;6.43;;;;;;;;;;5025129;28;20585;-61
2021/09/09 14:26:33;;;;;;;6.00;5.40;;;;;;;;;;5026259;28;20186;-60
2021/09/09 14:28:59;;;;;;;6.63;5.47;;;;;;;;;;5025027;28;20208;-61
2021/09/09 14:31:25;;;;;;;11.03;6.27;;;;;;;;;;5022788;28;20257;-61
2021/09/09 14:33:51;;;;;;;6.13;5.53;;;;;;;;;;5025759;28;20301;-61
2021/09/09 14:36:18;;;;;;;5.97;5.37;;;;;;;;;;5023651;28;20177;-61
2021/09/09 14:38:45;;;;;;;5.87;5.30;;;;;;;;;;5023862;28;20656;-60